createdAt,value
2023-03-01T00:00:28.548Z,84.49
2023-03-01T00:01:28.539Z,84.00
2023-03-01T00:02:28.606Z,84.80
2023-03-01T00:03:28.620Z,84.80
2023-03-01T00:04:28.519Z,83.97
2023-03-01T00:05:28.859Z,84.70
2023-03-01T00:06:28.799Z,83.86
2023-03-01T00:07:28.491Z,84.28
2023-03-01T00:08:28.483Z,85.22
2023-03-01T00:09:28.476Z,85.22
2023-03-01T00:10:28.466Z,85.33
2023-03-01T00:11:28.460Z,85.33
2023-03-01T00:12:28.458Z,84.80
2023-03-01T00:13:28.468Z,85.01
2023-03-01T00:14:28.436Z,84.39
2023-03-01T00:15:28.427Z,84.14
2023-03-01T00:16:28.917Z,84.07
2023-03-01T00:17:28.412Z,84.59
2023-03-01T00:18:28.409Z,84.45
2023-03-01T00:19:28.400Z,83.65
2023-03-01T00:20:28.394Z,83.86
2023-03-01T00:21:28.385Z,83.13
2023-03-01T00:22:28.371Z,82.60
2023-03-01T00:23:28.363Z,82.82
2023-03-01T00:24:28.356Z,83.23
2023-03-01T00:25:28.349Z,83.76
2023-03-01T00:26:28.772Z,84.28
2023-03-01T00:27:28.336Z,83.65
2023-03-01T00:28:28.335Z,84.28
2023-03-01T00:29:28.335Z,84.07
2023-03-01T00:30:28.374Z,84.07
2023-03-01T00:31:28.306Z,83.44
2023-03-01T00:32:28.301Z,83.48
2023-03-01T00:33:28.284Z,83.17
2023-03-01T00:34:28.277Z,83.34
2023-03-01T00:35:28.347Z,83.59
2023-03-01T00:36:28.671Z,83.69
2023-03-01T00:37:28.252Z,83.27
2023-03-01T00:38:28.256Z,82.96
2023-03-01T00:39:28.236Z,82.96
2023-03-01T00:40:28.232Z,83.17
2023-03-01T00:41:28.219Z,82.86
2023-03-01T00:42:28.213Z,83.17
2023-03-01T00:43:28.206Z,82.43
2023-03-01T00:44:28.194Z,81.63
2023-03-01T00:45:28.209Z,81.43
2023-03-01T00:46:28.429Z,81.95
2023-03-01T00:47:28.174Z,82.79
2023-03-01T00:48:28.163Z,83.00
2023-03-01T00:49:28.159Z,83.00
2023-03-01T00:50:28.148Z,83.62
2023-03-01T00:51:28.147Z,82.79
2023-03-01T00:52:28.132Z,82.93
2023-03-01T00:53:28.124Z,83.00
2023-03-01T00:54:28.156Z,83.56
2023-03-01T00:55:28.106Z,83.14
2023-03-01T00:56:28.356Z,82.93
2023-03-01T00:57:28.093Z,82.93
2023-03-01T00:58:28.082Z,83.14
2023-03-01T00:59:28.077Z,82.97
2023-03-01T01:00:28.078Z,82.82
2023-03-01T01:01:28.228Z,82.86
2023-03-01T01:02:28.169Z,83.39
2023-03-01T01:03:28.081Z,83.18
2023-03-01T01:04:28.034Z,83.59
2023-03-01T01:05:28.024Z,84.44
2023-03-01T01:06:28.658Z,84.64
2023-03-01T01:07:28.010Z,84.54
2023-03-01T01:08:28.005Z,84.01
2023-03-01T01:09:27.997Z,84.85
2023-03-01T01:10:27.985Z,84.54
2023-03-01T01:11:27.993Z,85.17
2023-03-01T01:12:27.965Z,85.48
2023-03-01T01:13:27.961Z,85.27
2023-03-01T01:14:27.955Z,85.27
2023-03-01T01:15:27.939Z,85.90
2023-03-01T01:16:28.017Z,87.09
2023-03-01T01:17:27.945Z,87.26
2023-03-01T01:18:27.932Z,87.58
2023-03-01T01:19:27.909Z,87.99
2023-03-01T01:20:27.918Z,88.42
2023-03-01T01:21:27.887Z,87.99
2023-03-01T01:22:27.882Z,87.68
2023-03-01T01:23:27.873Z,87.89
2023-03-01T01:24:27.866Z,87.68
2023-03-01T01:25:27.857Z,87.68
2023-03-01T01:26:27.891Z,87.58
2023-03-01T01:27:27.841Z,87.64
2023-03-01T01:28:27.831Z,87.43
2023-03-01T01:29:27.823Z,87.64
2023-03-01T01:30:27.817Z,87.43
2023-03-01T01:31:27.863Z,87.39
2023-03-01T01:32:27.807Z,87.50
2023-03-01T01:33:27.809Z,87.18
2023-03-01T01:34:27.778Z,86.24
2023-03-01T01:35:27.818Z,85.19
2023-03-01T01:36:28.107Z,83.77
2023-03-01T01:37:27.755Z,82.89
2023-03-01T01:38:27.745Z,82.20
2023-03-01T01:39:27.738Z,81.78
2023-03-01T01:40:27.741Z,82.03
2023-03-01T01:41:27.723Z,82.23
2023-03-01T01:42:27.710Z,82.65
2023-03-01T01:43:27.707Z,82.17
2023-03-01T01:44:27.693Z,82.48
2023-03-01T01:45:27.687Z,82.79
2023-03-01T01:46:27.844Z,83.64
2023-03-01T01:47:27.670Z,84.30
2023-03-01T01:48:27.659Z,84.30
2023-03-01T01:49:27.676Z,84.93
2023-03-01T01:50:27.641Z,85.03
2023-03-01T01:51:27.680Z,84.62
2023-03-01T01:52:27.630Z,85.03
2023-03-01T01:53:27.622Z,85.56
2023-03-01T01:54:27.622Z,85.66
2023-03-01T01:55:27.604Z,85.88
2023-03-01T01:56:27.750Z,86.25
2023-03-01T01:57:27.582Z,86.51
2023-03-01T01:58:27.576Z,86.36
2023-03-01T01:59:27.569Z,85.94
2023-03-01T02:00:27.561Z,85.83
2023-03-01T02:01:27.564Z,85.94
2023-03-01T02:02:27.606Z,86.22
2023-03-01T02:03:27.652Z,86.05
2023-03-01T02:04:27.526Z,86.05
2023-03-01T02:05:27.537Z,86.22
2023-03-01T02:06:27.517Z,86.22
2023-03-01T02:07:27.508Z,86.32
2023-03-01T02:08:27.500Z,86.32
2023-03-01T02:09:27.482Z,86.00
2023-03-01T02:10:27.477Z,85.90
2023-03-01T02:11:27.468Z,85.90
2023-03-01T02:12:27.461Z,85.69
2023-03-01T02:13:27.448Z,85.17
2023-03-01T02:14:27.451Z,85.27
2023-03-01T02:15:27.431Z,85.38
2023-03-01T02:16:27.562Z,85.02
2023-03-01T02:17:27.417Z,85.17
2023-03-01T02:18:27.410Z,85.02
2023-03-01T02:19:27.405Z,85.65
2023-03-01T02:20:27.390Z,85.65
2023-03-01T02:21:27.508Z,85.65
2023-03-01T02:22:27.429Z,85.75
2023-03-01T02:23:27.373Z,85.65
2023-03-01T02:24:27.368Z,85.44
2023-03-01T02:25:27.347Z,85.86
2023-03-01T02:26:27.340Z,85.75
2023-03-01T02:27:27.337Z,85.86
2023-03-01T02:28:27.323Z,85.86
2023-03-01T02:29:27.314Z,84.92
2023-03-01T02:30:27.316Z,85.02
2023-03-01T02:31:27.364Z,84.50
2023-03-01T02:32:27.317Z,84.71
2023-03-01T02:33:27.297Z,84.29
2023-03-01T02:34:27.278Z,84.19
2023-03-01T02:35:27.373Z,83.77
2023-03-01T02:36:27.374Z,83.81
2023-03-01T02:37:27.268Z,83.66
2023-03-01T02:38:27.236Z,83.77
2023-03-01T02:39:27.227Z,83.77
2023-03-01T02:40:27.224Z,83.39
2023-03-01T02:41:27.217Z,83.77
2023-03-01T02:42:27.497Z,83.81
2023-03-01T02:43:27.196Z,83.98
2023-03-01T02:44:27.196Z,83.28
2023-03-01T02:45:27.177Z,83.18
2023-03-01T02:46:27.243Z,83.18
2023-03-01T02:47:27.164Z,83.81
2023-03-01T02:48:27.149Z,83.70
2023-03-01T02:49:27.146Z,83.07
2023-03-01T02:50:27.144Z,83.70
2023-03-01T02:51:27.122Z,83.70
2023-03-01T02:52:27.127Z,83.49
2023-03-01T02:53:27.126Z,83.18
2023-03-01T02:54:27.098Z,83.91
2023-03-01T02:55:27.088Z,83.28
2023-03-01T02:56:27.082Z,83.28
2023-03-01T02:57:27.071Z,83.70
2023-03-01T02:58:27.065Z,84.50
2023-03-01T02:59:27.053Z,84.33
2023-03-01T03:00:27.057Z,84.39
2023-03-01T03:01:27.035Z,84.39
2023-03-01T03:02:27.030Z,84.81
2023-03-01T03:03:27.047Z,84.39
2023-03-01T03:04:27.010Z,84.39
2023-03-01T03:05:27.003Z,84.22
2023-03-01T03:06:26.996Z,84.39
2023-03-01T03:07:26.983Z,84.08
2023-03-01T03:08:27.030Z,84.39
2023-03-01T03:09:26.987Z,83.66
2023-03-01T03:10:26.959Z,84.50
2023-03-01T03:11:26.951Z,84.19
2023-03-01T03:12:26.944Z,84.50
2023-03-01T03:13:26.936Z,84.19
2023-03-01T03:14:26.930Z,84.39
2023-03-01T03:15:26.929Z,84.92
2023-03-01T03:16:26.980Z,84.81
2023-03-01T03:17:26.896Z,84.92
2023-03-01T03:18:26.892Z,85.41
2023-03-01T03:19:26.877Z,85.34
2023-03-01T03:20:26.873Z,84.71
2023-03-01T03:21:26.864Z,84.50
2023-03-01T03:22:26.854Z,84.61
2023-03-01T03:23:26.875Z,84.39
2023-03-01T03:24:26.839Z,85.24
2023-03-01T03:25:26.852Z,85.41
2023-03-01T03:26:26.838Z,85.41
2023-03-01T03:27:26.812Z,85.30
2023-03-01T03:28:26.801Z,84.81
2023-03-01T03:29:26.791Z,84.29
2023-03-01T03:30:26.783Z,83.56
2023-03-01T03:31:26.840Z,82.72
2023-03-01T03:32:26.849Z,82.93
2023-03-01T03:33:26.775Z,83.03
2023-03-01T03:34:26.751Z,83.25
2023-03-01T03:35:26.748Z,83.66
2023-03-01T03:36:26.748Z,83.56
2023-03-01T03:37:26.721Z,83.77
2023-03-01T03:38:26.719Z,83.98
2023-03-01T03:39:26.709Z,84.50
2023-03-01T03:40:26.698Z,84.08
2023-03-01T03:41:26.711Z,83.45
2023-03-01T03:42:26.684Z,83.87
2023-03-01T03:43:26.675Z,83.56
2023-03-01T03:44:26.664Z,83.77
2023-03-01T03:45:26.721Z,83.56
2023-03-01T03:46:26.670Z,83.77
2023-03-01T03:47:26.654Z,83.87
2023-03-01T03:48:26.643Z,83.98
2023-03-01T03:49:26.624Z,83.77
2023-03-01T03:50:26.612Z,83.87
2023-03-01T03:51:26.606Z,83.98
2023-03-01T03:52:26.602Z,83.77
2023-03-01T03:53:26.587Z,83.45
2023-03-01T03:54:26.576Z,83.03
2023-03-01T03:55:26.567Z,82.40
2023-03-01T03:56:28.468Z,82.55
2023-03-01T03:57:26.576Z,83.07
2023-03-01T03:58:26.554Z,83.03
2023-03-01T03:59:26.533Z,83.14
2023-03-01T04:00:26.527Z,83.14
2023-03-01T04:01:26.554Z,83.14
2023-03-01T04:02:26.528Z,83.70
2023-03-01T04:03:26.507Z,82.93
2023-03-01T04:04:26.494Z,83.39
2023-03-01T04:05:26.490Z,84.08
2023-03-01T04:06:26.475Z,84.29
2023-03-01T04:07:26.467Z,83.56
2023-03-01T04:08:26.464Z,83.98
2023-03-01T04:09:26.448Z,83.87
2023-03-01T04:10:26.444Z,83.77
2023-03-01T04:11:26.438Z,83.39
2023-03-01T04:12:26.426Z,83.28
2023-03-01T04:13:26.432Z,82.97
2023-03-01T04:14:26.408Z,82.51
2023-03-01T04:15:26.396Z,82.13
2023-03-01T04:16:26.469Z,82.20
2023-03-01T04:17:26.383Z,82.30
2023-03-01T04:18:26.374Z,82.03
2023-03-01T04:19:26.368Z,81.71
2023-03-01T04:20:26.362Z,81.82
2023-03-01T04:21:26.344Z,81.92
2023-03-01T04:22:26.338Z,82.13
2023-03-01T04:23:26.327Z,82.13
2023-03-01T04:24:26.320Z,82.13
2023-03-01T04:25:26.305Z,82.13
2023-03-01T04:26:26.309Z,82.03
2023-03-01T04:27:26.295Z,82.03
2023-03-01T04:28:26.305Z,82.03
2023-03-01T04:29:26.294Z,82.13
2023-03-01T04:30:26.271Z,81.82
2023-03-01T04:31:26.300Z,82.06
2023-03-01T04:32:26.305Z,82.17
2023-03-01T04:33:26.237Z,82.34
2023-03-01T04:34:26.233Z,82.34
2023-03-01T04:35:26.382Z,82.23
2023-03-01T04:36:26.407Z,82.13
2023-03-01T04:37:26.215Z,81.60
2023-03-01T04:38:26.198Z,82.03
2023-03-01T04:39:26.205Z,82.13
2023-03-01T04:40:26.185Z,82.45
2023-03-01T04:41:26.183Z,82.23
2023-03-01T04:42:26.174Z,82.13
2023-03-01T04:43:26.158Z,82.34
2023-03-01T04:44:26.146Z,82.76
2023-03-01T04:45:26.167Z,82.97
2023-03-01T04:46:26.209Z,82.76
2023-03-01T04:47:26.136Z,82.97
2023-03-01T04:48:26.110Z,82.55
2023-03-01T04:49:26.101Z,82.65
2023-03-01T04:50:26.093Z,82.55
2023-03-01T04:51:26.141Z,82.59
2023-03-01T04:52:26.080Z,82.45
2023-03-01T04:53:26.064Z,82.55
2023-03-01T04:54:26.057Z,82.27
2023-03-01T04:55:26.051Z,82.27
2023-03-01T04:56:26.038Z,82.69
2023-03-01T04:57:26.028Z,82.59
2023-03-01T04:58:26.022Z,82.48
2023-03-01T04:59:26.009Z,82.79
2023-03-01T05:00:26.006Z,82.38
2023-03-01T05:01:26.013Z,82.27
2023-03-01T05:02:26.033Z,81.96
2023-03-01T05:03:25.976Z,81.85
2023-03-01T05:04:26.071Z,82.38
2023-03-01T05:05:25.957Z,82.69
2023-03-01T05:06:25.951Z,82.69
2023-03-01T05:07:25.993Z,83.11
2023-03-01T05:08:25.934Z,82.59
2023-03-01T05:09:25.924Z,82.79
2023-03-01T05:10:25.913Z,83.01
2023-03-01T05:11:26.106Z,83.01
2023-03-01T05:12:25.894Z,83.42
2023-03-01T05:13:25.892Z,83.01
2023-03-01T05:14:25.877Z,83.01
2023-03-01T05:15:25.872Z,83.11
2023-03-01T05:16:25.859Z,83.01
2023-03-01T05:17:25.899Z,83.01
2023-03-01T05:18:25.930Z,82.48
2023-03-01T05:19:25.830Z,82.27
2023-03-01T05:20:25.842Z,82.69
2023-03-01T05:21:25.817Z,82.48
2023-03-01T05:22:25.806Z,83.11
2023-03-01T05:23:25.796Z,83.53
2023-03-01T05:24:25.789Z,83.22
2023-03-01T05:25:25.778Z,82.90
2023-03-01T05:26:39.576Z,82.79
2023-03-01T05:27:25.761Z,82.79
2023-03-01T05:28:25.753Z,83.07
2023-03-01T05:29:25.750Z,83.11
2023-03-01T05:30:25.736Z,82.59
2023-03-01T05:31:25.825Z,82.79
2023-03-01T05:32:25.772Z,83.11
2023-03-01T05:33:25.726Z,82.90
2023-03-01T05:34:25.698Z,82.59
2023-03-01T05:35:25.733Z,82.17
2023-03-01T05:36:25.683Z,82.17
2023-03-01T05:37:25.672Z,82.27
2023-03-01T05:38:25.665Z,82.90
2023-03-01T05:39:25.661Z,82.31
2023-03-01T05:40:25.655Z,81.75
2023-03-01T05:41:25.635Z,82.27
2023-03-01T05:42:25.636Z,82.31
2023-03-01T05:43:25.618Z,82.52
2023-03-01T05:44:25.611Z,82.42
2023-03-01T05:45:25.605Z,82.59
2023-03-01T05:46:25.824Z,82.59
2023-03-01T05:47:25.583Z,82.31
2023-03-01T05:48:25.577Z,82.06
2023-03-01T05:49:25.591Z,82.42
2023-03-01T05:50:25.563Z,82.20
2023-03-01T05:51:25.550Z,82.20
2023-03-01T05:52:25.542Z,82.31
2023-03-01T05:53:25.530Z,82.10
2023-03-01T05:54:25.525Z,82.31
2023-03-01T05:55:26.637Z,82.31
2023-03-01T05:56:25.503Z,82.31
2023-03-01T05:57:25.497Z,82.42
2023-03-01T05:58:25.488Z,82.94
2023-03-01T05:59:25.478Z,82.94
2023-03-01T06:00:25.484Z,82.83
2023-03-01T06:01:25.460Z,82.73
2023-03-01T06:02:25.460Z,82.52
2023-03-01T06:03:25.448Z,83.36
2023-03-01T06:04:25.490Z,83.36
2023-03-01T06:05:25.536Z,83.36
2023-03-01T06:06:26.570Z,83.25
2023-03-01T06:07:25.410Z,83.15
2023-03-01T06:08:25.404Z,83.25
2023-03-01T06:09:25.389Z,83.15
2023-03-01T06:10:25.383Z,83.47
2023-03-01T06:11:25.838Z,83.15
2023-03-01T06:12:25.365Z,83.04
2023-03-01T06:13:25.359Z,83.15
2023-03-01T06:14:25.345Z,83.04
2023-03-01T06:15:25.340Z,83.04
2023-03-01T06:16:25.328Z,83.04
2023-03-01T06:17:25.318Z,83.25
2023-03-01T06:18:25.310Z,83.36
2023-03-01T06:19:25.301Z,82.94
2023-03-01T06:20:25.289Z,82.94
2023-03-01T06:21:25.302Z,83.47
2023-03-01T06:22:25.278Z,83.04
2023-03-01T06:23:25.277Z,82.83
2023-03-01T06:24:25.258Z,82.73
2023-03-01T06:25:25.246Z,83.15
2023-03-01T06:26:25.236Z,83.36
2023-03-01T06:27:25.230Z,83.47
2023-03-01T06:28:25.218Z,83.36
2023-03-01T06:29:25.215Z,83.57
2023-03-01T06:30:25.205Z,83.36
2023-03-01T06:31:25.257Z,83.15
2023-03-01T06:32:25.193Z,83.15
2023-03-01T06:33:25.187Z,83.36
2023-03-01T06:34:25.168Z,82.83
2023-03-01T06:35:25.201Z,82.62
2023-03-01T06:36:25.145Z,82.62
2023-03-01T06:37:25.167Z,82.62
2023-03-01T06:38:25.161Z,83.15
2023-03-01T06:39:25.122Z,82.62
2023-03-01T06:40:25.113Z,82.52
2023-03-01T06:41:25.105Z,82.73
2023-03-01T06:42:25.091Z,82.42
2023-03-01T06:43:25.104Z,82.42
2023-03-01T06:44:25.073Z,82.20
2023-03-01T06:45:25.067Z,82.20
2023-03-01T06:46:25.136Z,82.20
2023-03-01T06:47:25.048Z,82.83
2023-03-01T06:48:25.037Z,82.31
2023-03-01T06:49:25.028Z,82.31
2023-03-01T06:50:25.034Z,82.31
2023-03-01T06:51:25.015Z,82.20
2023-03-01T06:52:25.002Z,82.42
2023-03-01T06:53:25.009Z,82.20
2023-03-01T06:54:24.982Z,81.89
2023-03-01T06:55:24.972Z,81.79
2023-03-01T06:56:24.960Z,81.89
2023-03-01T06:57:24.951Z,81.89
2023-03-01T06:58:24.948Z,81.75
2023-03-01T06:59:25.012Z,81.85
2023-03-01T07:00:24.929Z,81.75
2023-03-01T07:01:24.964Z,81.96
2023-03-01T07:02:24.997Z,81.75
2023-03-01T07:03:24.897Z,81.85
2023-03-01T07:04:24.885Z,81.64
2023-03-01T07:05:24.879Z,81.96
2023-03-01T07:06:24.866Z,82.17
2023-03-01T07:07:24.858Z,81.75
2023-03-01T07:08:24.850Z,81.64
2023-03-01T07:09:24.858Z,81.23
2023-03-01T07:10:24.827Z,81.43
2023-03-01T07:11:24.820Z,81.50
2023-03-01T07:12:24.823Z,81.29
2023-03-01T07:13:24.817Z,81.50
2023-03-01T07:14:24.796Z,81.82
2023-03-01T07:15:24.792Z,82.13
2023-03-01T07:16:24.847Z,82.23
2023-03-01T07:17:24.780Z,82.13
2023-03-01T07:18:24.777Z,82.20
2023-03-01T07:19:24.762Z,81.82
2023-03-01T07:20:24.745Z,81.71
2023-03-01T07:21:24.735Z,82.23
2023-03-01T07:22:24.736Z,82.20
2023-03-01T07:23:24.719Z,82.62
2023-03-01T07:24:24.715Z,82.62
2023-03-01T07:25:24.712Z,82.20
2023-03-01T07:26:26.234Z,81.78
2023-03-01T07:27:24.676Z,81.67
2023-03-01T07:28:24.665Z,81.88
2023-03-01T07:29:25.383Z,82.09
2023-03-01T07:30:24.653Z,82.47
2023-03-01T07:31:24.643Z,82.68
2023-03-01T07:32:24.758Z,82.68
2023-03-01T07:33:24.685Z,82.58
2023-03-01T07:34:24.612Z,83.42
2023-03-01T07:35:24.701Z,83.00
2023-03-01T07:36:24.599Z,83.00
2023-03-01T07:37:24.592Z,82.79
2023-03-01T07:38:24.576Z,82.96
2023-03-01T07:39:24.580Z,82.02
2023-03-01T07:40:24.566Z,81.49
2023-03-01T07:41:24.684Z,81.70
2023-03-01T07:42:24.541Z,81.60
2023-03-01T07:43:24.534Z,81.18
2023-03-01T07:44:24.524Z,80.97
2023-03-01T07:45:24.568Z,81.07
2023-03-01T07:46:24.521Z,80.87
2023-03-01T07:47:24.500Z,80.83
2023-03-01T07:48:24.491Z,81.15
2023-03-01T07:49:24.490Z,80.73
2023-03-01T07:50:24.485Z,80.83
2023-03-01T07:51:24.468Z,80.41
2023-03-01T07:52:24.457Z,79.96
2023-03-01T07:53:24.451Z,80.27
2023-03-01T07:54:24.439Z,80.69
2023-03-01T07:55:24.430Z,81.11
2023-03-01T07:56:24.439Z,80.90
2023-03-01T07:57:24.434Z,80.44
2023-03-01T07:58:24.417Z,80.44
2023-03-01T07:59:24.395Z,80.41
2023-03-01T08:00:24.387Z,80.82
2023-03-01T08:01:24.376Z,80.82
2023-03-01T08:02:24.368Z,80.47
2023-03-01T08:03:24.364Z,80.44
2023-03-01T08:04:24.349Z,80.33
2023-03-01T08:05:24.343Z,79.25
2023-03-01T08:06:24.333Z,78.28
2023-03-01T08:07:24.330Z,78.45
2023-03-01T08:08:24.328Z,78.20
2023-03-01T08:09:24.314Z,77.23
2023-03-01T08:10:24.297Z,75.95
2023-03-01T08:11:24.359Z,74.91
2023-03-01T08:12:24.483Z,74.04
2023-03-01T08:13:24.295Z,74.43
2023-03-01T08:14:24.274Z,74.80
2023-03-01T08:15:24.261Z,74.91
2023-03-01T08:16:24.351Z,74.26
2023-03-01T08:17:24.242Z,74.05
2023-03-01T08:18:24.233Z,74.01
2023-03-01T08:19:24.232Z,73.36
2023-03-01T08:20:24.218Z,72.11
2023-03-01T08:21:24.209Z,71.14
2023-03-01T08:22:24.206Z,70.00
2023-03-01T08:23:24.195Z,70.10
2023-03-01T08:24:24.184Z,70.59
2023-03-01T08:25:24.180Z,70.07
2023-03-01T08:26:24.171Z,69.24
2023-03-01T08:27:24.691Z,69.42
2023-03-01T08:28:24.153Z,68.70
2023-03-01T08:29:24.167Z,69.94
2023-03-01T08:30:24.159Z,68.38
2023-03-01T08:31:24.182Z,66.93
2023-03-01T08:32:24.197Z,66.62
2023-03-01T08:33:24.177Z,66.83
2023-03-01T08:34:24.108Z,67.03
2023-03-01T08:35:24.124Z,67.38
2023-03-01T08:36:24.099Z,67.35
2023-03-01T08:37:24.092Z,67.17
2023-03-01T08:38:24.077Z,65.83
2023-03-01T08:39:24.156Z,67.38
2023-03-01T08:40:24.060Z,66.44
2023-03-01T08:41:24.055Z,66.99
2023-03-01T08:42:24.073Z,67.51
2023-03-01T08:43:25.482Z,68.55
2023-03-01T08:44:24.035Z,68.34
2023-03-01T08:45:24.048Z,68.44
2023-03-01T08:46:24.014Z,69.07
2023-03-01T08:47:24.008Z,69.52
2023-03-01T08:48:23.998Z,67.47
2023-03-01T08:49:23.992Z,68.96
2023-03-01T08:50:24.078Z,70.00
2023-03-01T08:51:23.978Z,70.97
2023-03-01T08:52:23.968Z,71.59
2023-03-01T08:53:23.994Z,71.59
2023-03-01T08:54:23.950Z,71.48
2023-03-01T08:55:23.962Z,70.65
2023-03-01T08:56:23.941Z,72.66
2023-03-01T08:57:23.931Z,72.03
2023-03-01T08:58:23.921Z,71.83
2023-03-01T08:59:23.916Z,71.62
2023-03-01T09:00:23.909Z,71.65
2023-03-01T09:01:23.922Z,71.86
2023-03-01T09:02:23.969Z,72.38
2023-03-01T09:03:23.889Z,72.00
2023-03-01T09:04:23.879Z,71.86
2023-03-01T09:05:23.869Z,72.49
2023-03-01T09:06:23.876Z,72.93
2023-03-01T09:07:23.857Z,74.29
2023-03-01T09:08:23.897Z,75.32
2023-03-01T09:09:23.838Z,75.01
2023-03-01T09:10:23.871Z,73.21
2023-03-01T09:11:23.823Z,73.42
2023-03-01T09:12:23.818Z,72.69
2023-03-01T09:13:23.809Z,73.42
2023-03-01T09:14:23.804Z,72.90
2023-03-01T09:15:23.791Z,71.97
2023-03-01T09:16:23.867Z,72.38
2023-03-01T09:17:23.799Z,72.59
2023-03-01T09:18:23.769Z,72.38
2023-03-01T09:19:25.728Z,72.49
2023-03-01T09:20:23.753Z,72.90
2023-03-01T09:21:37.650Z,73.73
2023-03-01T09:22:23.739Z,73.42
2023-03-01T09:23:23.733Z,70.92
2023-03-01T09:24:23.737Z,70.82
2023-03-01T09:25:23.718Z,69.26
2023-03-01T09:26:23.710Z,70.92
2023-03-01T09:27:23.705Z,72.28
2023-03-01T09:28:29.673Z,72.59
2023-03-01T09:29:23.716Z,73.25
2023-03-01T09:30:23.685Z,74.57
2023-03-01T09:31:23.677Z,73.00
2023-03-01T09:32:23.709Z,72.17
2023-03-01T09:33:23.693Z,71.65
2023-03-01T09:34:23.653Z,71.13
2023-03-01T09:35:23.642Z,72.28
2023-03-01T09:36:23.639Z,73.28
2023-03-01T09:37:23.625Z,72.34
2023-03-01T09:38:25.906Z,71.28
2023-03-01T09:39:23.616Z,70.48
2023-03-01T09:40:23.603Z,69.92
2023-03-01T09:41:23.600Z,70.97
2023-03-01T09:42:23.591Z,69.82
2023-03-01T09:43:23.581Z,69.20
2023-03-01T09:44:23.571Z,69.30
2023-03-01T09:45:23.567Z,68.44
2023-03-01T09:46:23.580Z,67.54
2023-03-01T09:47:23.552Z,70.10
2023-03-01T09:48:23.545Z,69.89
2023-03-01T09:49:23.553Z,66.18
2023-03-01T09:50:23.530Z,68.05
2023-03-01T09:51:23.518Z,69.51
2023-03-01T09:52:23.512Z,69.09
2023-03-01T09:53:23.503Z,67.95
2023-03-01T09:54:23.500Z,68.05
2023-03-01T09:55:23.491Z,69.20
2023-03-01T09:56:23.484Z,69.20
2023-03-01T09:57:23.482Z,69.61
2023-03-01T09:58:23.668Z,70.00
2023-03-01T09:59:23.468Z,69.71
2023-03-01T10:00:23.449Z,69.48
2023-03-01T10:01:23.458Z,69.89
2023-03-01T10:02:23.440Z,70.83
2023-03-01T10:03:23.430Z,70.51
2023-03-01T10:04:23.531Z,68.65
2023-03-01T10:05:23.440Z,69.89
2023-03-01T10:06:34.468Z,68.26
2023-03-01T10:07:23.407Z,68.68
2023-03-01T10:08:23.391Z,69.09
2023-03-01T10:09:23.391Z,69.82
2023-03-01T10:10:23.374Z,70.97
2023-03-01T10:11:25.240Z,72.63
2023-03-01T10:12:23.435Z,71.17
2023-03-01T10:13:23.354Z,69.09
2023-03-01T10:14:23.347Z,68.26
2023-03-01T10:15:23.338Z,68.88
2023-03-01T10:16:23.330Z,69.43
2023-03-01T10:17:23.324Z,70.03
2023-03-01T10:18:23.315Z,69.61
2023-03-01T10:19:23.310Z,70.86
2023-03-01T10:20:23.304Z,70.34
2023-03-01T10:21:23.316Z,68.99
2023-03-01T10:22:23.298Z,71.45
2023-03-01T10:23:23.280Z,70.51
2023-03-01T10:24:23.273Z,69.89
2023-03-01T10:25:23.263Z,69.17
2023-03-01T10:26:23.265Z,69.89
2023-03-01T10:27:23.252Z,68.96
2023-03-01T10:28:23.241Z,71.03
2023-03-01T10:29:23.266Z,70.90
2023-03-01T10:30:23.224Z,67.79
2023-03-01T10:31:23.294Z,68.13
2023-03-01T10:32:25.056Z,68.62
2023-03-01T10:33:23.207Z,69.37
2023-03-01T10:34:23.196Z,68.96
2023-03-01T10:35:23.190Z,67.68
2023-03-01T10:36:23.189Z,68.02
2023-03-01T10:37:23.267Z,70.07
2023-03-01T10:38:23.173Z,67.82
2023-03-01T10:39:23.157Z,65.63
2023-03-01T10:40:23.164Z,65.53
2023-03-01T10:41:23.142Z,67.09
2023-03-01T10:42:23.138Z,65.84
2023-03-01T10:43:23.126Z,67.50
2023-03-01T10:44:23.123Z,68.44
2023-03-01T10:45:25.182Z,70.00
2023-03-01T10:46:23.277Z,69.17
2023-03-01T10:47:23.098Z,68.96
2023-03-01T10:48:23.095Z,69.55
2023-03-01T10:49:23.080Z,70.72
2023-03-01T10:50:23.074Z,69.96
2023-03-01T10:51:23.067Z,71.00
2023-03-01T10:52:23.062Z,69.13
2023-03-01T10:53:23.081Z,70.69
2023-03-01T10:54:23.063Z,69.93
2023-03-01T10:55:23.047Z,70.38
2023-03-01T10:56:23.033Z,68.59
2023-03-01T10:57:23.020Z,67.79
2023-03-01T10:58:23.018Z,67.16
2023-03-01T10:59:23.010Z,67.27
2023-03-01T11:00:23.011Z,67.68
2023-03-01T11:01:23.070Z,67.65
2023-03-01T11:02:25.411Z,66.09
2023-03-01T11:03:22.981Z,65.70
2023-03-01T11:04:23.053Z,65.58
2023-03-01T11:05:22.974Z,67.44
2023-03-01T11:06:22.986Z,68.17
2023-03-01T11:07:22.950Z,68.30
2023-03-01T11:08:22.961Z,69.42
2023-03-01T11:09:22.957Z,68.90
2023-03-01T11:10:22.933Z,68.59
2023-03-01T11:11:22.922Z,67.34
2023-03-01T11:12:22.931Z,69.83
2023-03-01T11:13:22.903Z,67.44
2023-03-01T11:14:27.160Z,69.21
2023-03-01T11:15:22.891Z,69.83
2023-03-01T11:16:23.057Z,70.35
2023-03-01T11:17:22.894Z,69.52
2023-03-01T11:18:30.942Z,69.21
2023-03-01T11:19:22.858Z,69.00
2023-03-01T11:20:24.675Z,69.83
2023-03-01T11:21:22.849Z,70.56
2023-03-01T11:22:22.934Z,70.76
2023-03-01T11:23:22.841Z,69.21
2023-03-01T11:24:22.832Z,67.96
2023-03-01T11:25:22.854Z,67.30
2023-03-01T11:26:22.808Z,67.03
2023-03-01T11:27:22.801Z,65.47
2023-03-01T11:28:22.821Z,65.47
2023-03-01T11:29:22.785Z,66.20
2023-03-01T11:30:22.790Z,65.47
2023-03-01T11:31:22.837Z,67.51
2023-03-01T11:32:22.888Z,69.79
2023-03-01T11:33:22.753Z,69.17
2023-03-01T11:34:22.758Z,67.30
2023-03-01T11:35:22.744Z,68.13
2023-03-01T11:36:22.801Z,68.13
2023-03-01T11:37:22.724Z,68.55
2023-03-01T11:38:22.724Z,69.48
2023-03-01T11:39:22.712Z,69.38
2023-03-01T11:40:22.729Z,65.55
2023-03-01T11:41:22.767Z,65.44
2023-03-01T11:42:22.686Z,65.65
2023-03-01T11:43:22.680Z,65.44
2023-03-01T11:44:22.673Z,66.03
2023-03-01T11:45:22.665Z,66.75
2023-03-01T11:46:22.705Z,67.27
2023-03-01T11:47:22.872Z,65.93
2023-03-01T11:48:22.644Z,65.72
2023-03-01T11:49:22.634Z,64.06
2023-03-01T11:50:22.652Z,65.62
2023-03-01T11:51:22.622Z,65.41
2023-03-01T11:52:22.638Z,66.86
2023-03-01T11:53:22.620Z,65.00
2023-03-01T11:54:22.606Z,65.10
2023-03-01T11:55:22.592Z,64.92
2023-03-01T11:56:23.950Z,64.58
2023-03-01T11:57:28.836Z,65.28
2023-03-01T11:58:22.571Z,67.07
2023-03-01T11:59:22.567Z,67.24
2023-03-01T12:00:22.576Z,66.96
2023-03-01T12:01:22.591Z,67.38
2023-03-01T12:02:22.609Z,65.41
2023-03-01T12:03:22.540Z,65.00
2023-03-01T12:04:22.584Z,63.75
2023-03-01T12:05:22.541Z,63.34
2023-03-01T12:06:22.510Z,65.59
2023-03-01T12:07:22.504Z,67.76
2023-03-01T12:08:22.502Z,65.25
2023-03-01T12:09:22.501Z,63.38
2023-03-01T12:10:22.487Z,65.25
2023-03-01T12:11:22.478Z,63.59
2023-03-01T12:12:22.470Z,64.94
2023-03-01T12:13:22.545Z,67.21
2023-03-01T12:14:22.455Z,67.32
2023-03-01T12:15:22.443Z,66.83
2023-03-01T12:16:37.512Z,67.14
2023-03-01T12:17:22.429Z,67.03
2023-03-01T12:18:22.774Z,66.00
2023-03-01T12:19:22.419Z,65.17
2023-03-01T12:20:22.418Z,65.69
2023-03-01T12:21:22.400Z,64.42
2023-03-01T12:22:22.398Z,65.35
2023-03-01T12:23:22.387Z,64.94
2023-03-01T12:24:22.381Z,66.80
2023-03-01T12:25:22.369Z,65.87
2023-03-01T12:26:22.364Z,67.11
2023-03-01T12:27:22.362Z,67.00
2023-03-01T12:28:22.350Z,65.73
2023-03-01T12:29:22.358Z,67.18
2023-03-01T12:30:22.336Z,65.84
2023-03-01T12:31:22.386Z,65.63
2023-03-01T12:32:22.414Z,64.49
2023-03-01T12:33:22.319Z,63.76
2023-03-01T12:34:22.308Z,64.49
2023-03-01T12:35:22.305Z,65.01
2023-03-01T12:36:22.303Z,65.42
2023-03-01T12:37:22.282Z,65.42
2023-03-01T12:38:22.275Z,65.01
2023-03-01T12:39:22.274Z,65.22
2023-03-01T12:40:22.306Z,62.84
2023-03-01T12:41:22.256Z,63.15
2023-03-01T12:42:22.249Z,64.80
2023-03-01T12:43:22.251Z,65.08
2023-03-01T12:44:22.235Z,63.53
2023-03-01T12:45:22.240Z,63.53
2023-03-01T12:46:22.225Z,64.77
2023-03-01T12:47:22.207Z,65.08
2023-03-01T12:48:22.204Z,63.46
2023-03-01T12:49:22.191Z,65.19
2023-03-01T12:50:22.188Z,64.46
2023-03-01T12:51:22.184Z,64.36
2023-03-01T12:52:22.178Z,65.50